createdAt,value
2019-05-12T00:00:09.205Z,74.14
2019-05-12T00:02:39.715Z,73.58
2019-05-12T00:05:09.015Z,73.10
2019-05-12T00:07:38.158Z,72.75
2019-05-12T00:10:08.634Z,73.11
2019-05-12T00:12:38.528Z,73.26
2019-05-12T00:15:08.391Z,73.47
2019-05-12T00:17:38.710Z,73.31
2019-05-12T00:20:08.575Z,73.38
2019-05-12T00:22:38.816Z,72.87
2019-05-12T00:25:08.894Z,72.86
2019-05-12T00:27:38.758Z,73.50
2019-05-12T00:30:10.480Z,73.38
2019-05-12T00:32:39.158Z,73.06
2019-05-12T00:35:08.109Z,72.71
2019-05-12T00:37:38.105Z,73.58
2019-05-12T00:40:08.840Z,72.27
2019-05-12T00:42:38.172Z,72.81
2019-05-12T00:45:08.218Z,72.76
2019-05-12T00:47:38.899Z,72.56
2019-05-12T00:50:08.134Z,72.51
2019-05-12T00:52:38.613Z,72.60
2019-05-12T00:55:07.980Z,74.06
2019-05-12T00:57:38.345Z,74.31
2019-05-12T01:00:10.329Z,73.23
2019-05-12T01:02:38.815Z,73.00
2019-05-12T01:05:08.670Z,73.65
2019-05-12T01:07:38.309Z,73.87
2019-05-12T01:10:08.705Z,74.21
2019-05-12T01:12:38.220Z,73.90
2019-05-12T01:15:08.372Z,73.98
2019-05-12T01:17:40.078Z,73.31
2019-05-12T01:20:09.108Z,73.17
2019-05-12T01:22:38.268Z,73.48
2019-05-12T01:25:08.550Z,72.59
2019-05-12T01:27:38.128Z,72.31
2019-05-12T01:30:08.784Z,72.43
2019-05-12T01:32:39.053Z,72.59
2019-05-12T01:35:08.910Z,72.43
2019-05-12T01:37:38.366Z,72.22
2019-05-12T01:40:09.262Z,72.34
2019-05-12T01:42:38.374Z,71.58
2019-05-12T01:45:09.203Z,71.01
2019-05-12T01:47:38.372Z,71.68
2019-05-12T01:50:09.034Z,71.05
2019-05-12T01:52:38.602Z,71.30
2019-05-12T01:55:08.334Z,71.69
2019-05-12T01:57:38.605Z,71.43
2019-05-12T02:00:12.203Z,71.69
2019-05-12T02:02:40.711Z,71.60
2019-05-12T02:05:09.754Z,71.38
2019-05-12T02:07:40.158Z,71.22
2019-05-12T02:10:09.499Z,71.82
2019-05-12T02:12:38.432Z,72.30
2019-05-12T02:15:08.207Z,71.41
2019-05-12T02:17:38.928Z,70.97
2019-05-12T02:20:11.726Z,70.23
2019-05-12T02:22:40.150Z,70.57
2019-05-12T02:25:09.294Z,69.93
2019-05-12T02:27:38.297Z,69.85
2019-05-12T02:30:09.705Z,69.82
2019-05-12T02:32:48.304Z,69.43
2019-05-12T02:35:09.350Z,69.50
2019-05-12T02:37:37.837Z,69.92
2019-05-12T02:40:11.174Z,70.44
2019-05-12T02:42:39.579Z,69.49
2019-05-12T02:45:10.174Z,69.56
2019-05-12T02:47:38.867Z,69.88
2019-05-12T02:50:08.967Z,69.53
2019-05-12T02:52:37.667Z,69.05
2019-05-12T02:55:06.830Z,68.99
2019-05-12T02:57:36.068Z,69.34
2019-05-12T03:00:07.308Z,68.73
2019-05-12T03:02:36.413Z,68.25
2019-05-12T03:05:07.225Z,69.16
2019-05-12T03:07:35.908Z,69.75
2019-05-12T03:10:06.951Z,69.60
2019-05-12T03:12:35.547Z,69.17
2019-05-12T03:15:05.765Z,69.58
2019-05-12T03:17:35.528Z,69.71
2019-05-12T03:20:06.247Z,69.50
2019-05-12T03:22:35.418Z,69.17
2019-05-12T03:25:15.535Z,70.18
2019-05-12T03:27:35.103Z,70.26
2019-05-12T03:30:11.443Z,69.10
2019-05-12T03:32:37.928Z,69.45
2019-05-12T03:35:08.815Z,69.21
2019-05-12T03:37:36.635Z,69.42
2019-05-12T03:40:07.104Z,69.35
2019-05-12T03:42:35.950Z,69.56
2019-05-12T03:45:05.097Z,69.96
2019-05-12T03:47:35.532Z,69.46
2019-05-12T03:50:05.126Z,69.19
2019-05-12T03:52:35.037Z,69.08
2019-05-12T03:55:05.754Z,69.19
2019-05-12T03:57:34.832Z,69.41
2019-05-12T04:00:05.843Z,69.17
2019-05-12T04:02:34.317Z,69.20
2019-05-12T04:05:05.226Z,69.57
2019-05-12T04:07:34.523Z,69.25
2019-05-12T04:10:05.306Z,69.81
2019-05-12T04:12:34.780Z,69.88
2019-05-12T04:15:05.196Z,68.87
2019-05-12T04:17:35.027Z,69.44
2019-05-12T04:20:05.184Z,69.88
2019-05-12T04:22:35.226Z,69.75
2019-05-12T04:25:06.079Z,69.48
2019-05-12T04:27:35.104Z,69.64
2019-05-12T04:30:05.477Z,69.37
2019-05-12T04:32:35.694Z,69.87
2019-05-12T04:35:07.370Z,69.99
2019-05-12T04:37:37.705Z,69.28
2019-05-12T04:40:06.881Z,69.75
2019-05-12T04:42:35.332Z,69.56
2019-05-12T04:45:05.239Z,69.58
2019-05-12T04:47:35.106Z,69.72
2019-05-12T04:50:05.730Z,68.95
2019-05-12T04:52:35.251Z,69.04
2019-05-12T04:55:05.171Z,69.49
2019-05-12T04:57:34.635Z,69.93
2019-05-12T05:00:05.476Z,69.24
2019-05-12T05:02:36.399Z,69.04
2019-05-12T05:05:06.857Z,69.02
2019-05-12T05:07:36.063Z,68.61
2019-05-12T05:10:05.452Z,69.74
2019-05-12T05:12:34.577Z,69.65
2019-05-12T05:15:05.422Z,69.51
2019-05-12T05:17:34.785Z,70.10
2019-05-12T05:20:04.665Z,70.24
2019-05-12T05:22:33.399Z,70.52
2019-05-12T05:25:04.103Z,69.65
2019-05-12T05:27:34.066Z,69.69
2019-05-12T05:30:04.045Z,69.21
2019-05-12T05:32:33.972Z,69.65
2019-05-12T05:35:03.984Z,69.18
2019-05-12T05:37:39.551Z,67.76
2019-05-12T05:40:04.042Z,68.59
2019-05-12T05:42:35.371Z,67.47
2019-05-12T05:45:04.887Z,67.53
2019-05-12T05:47:33.741Z,69.12
2019-05-12T05:50:04.604Z,68.65
2019-05-12T05:52:34.204Z,67.21
2019-05-12T05:55:05.811Z,67.22
2019-05-12T05:57:33.642Z,67.99
2019-05-12T06:00:09.438Z,67.36
2019-05-12T06:02:39.706Z,66.85
2019-05-12T06:05:05.176Z,67.07
2019-05-12T06:07:38.747Z,67.52
2019-05-12T06:10:06.386Z,67.16
2019-05-12T06:12:34.794Z,66.87
2019-05-12T06:15:04.227Z,67.05
2019-05-12T06:17:34.148Z,65.77
2019-05-12T06:20:04.354Z,65.91
2019-05-12T06:22:34.365Z,66.24
2019-05-12T06:25:05.024Z,66.94
2019-05-12T06:27:35.922Z,66.92
2019-05-12T06:30:06.362Z,66.35
2019-05-12T06:32:34.928Z,65.77
2019-05-12T06:35:04.851Z,66.63
2019-05-12T06:37:33.995Z,66.94
2019-05-12T06:40:03.596Z,66.82
2019-05-12T06:42:34.133Z,66.84
2019-05-12T06:45:03.785Z,66.84
2019-05-12T06:47:34.358Z,67.31
2019-05-12T06:50:03.951Z,65.49
2019-05-12T06:52:33.722Z,66.71
2019-05-12T06:55:04.085Z,67.67
2019-05-12T06:57:34.273Z,66.15
2019-05-12T07:00:04.554Z,66.22
2019-05-12T07:02:36.963Z,65.26
2019-05-12T07:05:04.389Z,65.51
2019-05-12T07:07:41.737Z,64.68
2019-05-12T07:10:11.607Z,64.25
2019-05-12T07:12:43.555Z,65.06
2019-05-12T07:15:06.274Z,64.55
2019-05-12T07:17:43.836Z,63.38
2019-05-12T07:20:09.565Z,65.17
2019-05-12T07:22:44.225Z,64.60
2019-05-12T07:25:08.537Z,63.84
2019-05-12T07:27:39.698Z,63.86
2019-05-12T07:30:07.659Z,65.05
2019-05-12T07:32:36.089Z,64.08
2019-05-12T07:35:06.664Z,64.43
2019-05-12T07:37:35.644Z,63.46
2019-05-12T07:40:06.039Z,63.68
2019-05-12T07:42:39.411Z,63.94
2019-05-12T07:45:11.497Z,64.92
2019-05-12T07:47:37.136Z,64.47
2019-05-12T07:50:09.757Z,64.86
2019-05-12T07:52:38.449Z,65.23
2019-05-12T07:55:07.238Z,64.17
2019-05-12T07:57:50.684Z,65.34
2019-05-12T08:00:11.357Z,65.73
2019-05-12T08:02:39.729Z,64.63
2019-05-12T08:05:11.137Z,65.42
2019-05-12T08:07:39.333Z,65.22
2019-05-12T08:10:15.783Z,63.99
2019-05-12T08:12:38.357Z,64.18
2019-05-12T08:15:10.890Z,64.42
2019-05-12T08:17:39.309Z,64.33
2019-05-12T08:20:08.851Z,63.78
2019-05-12T08:22:37.289Z,64.23
2019-05-12T08:25:07.359Z,63.84
2019-05-12T08:27:39.191Z,63.31
2019-05-12T08:30:06.749Z,61.64
2019-05-12T08:32:35.171Z,62.96
2019-05-12T08:35:05.036Z,63.47
2019-05-12T08:37:33.583Z,62.66
2019-05-12T08:40:05.984Z,62.62
2019-05-12T08:42:34.316Z,63.47
2019-05-12T08:45:04.534Z,62.01
2019-05-12T08:47:35.586Z,62.09
2019-05-12T08:50:04.827Z,60.83
2019-05-12T08:52:37.231Z,61.60
2019-05-12T08:55:04.259Z,60.44
2019-05-12T08:57:40.835Z,60.38
2019-05-12T09:00:08.458Z,61.82
2019-05-12T09:02:34.509Z,61.41
2019-05-12T09:05:04.682Z,61.02
2019-05-12T09:07:35.781Z,61.75
2019-05-12T09:10:04.308Z,61.02
2019-05-12T09:12:33.793Z,61.06
2019-05-12T09:15:04.280Z,61.13
2019-05-12T09:17:34.721Z,61.10
2019-05-12T09:20:08.180Z,59.75
2019-05-12T09:22:34.298Z,60.66
2019-05-12T09:25:06.247Z,60.29
2019-05-12T09:27:33.602Z,60.00
2019-05-12T09:30:05.360Z,60.22
2019-05-12T09:32:33.934Z,57.80
2019-05-12T09:35:03.980Z,58.48
2019-05-12T09:37:38.766Z,56.84
2019-05-12T09:40:04.632Z,55.66
2019-05-12T09:42:33.513Z,52.65
2019-05-12T09:45:06.126Z,50.55
2019-05-12T09:47:34.245Z,53.24
2019-05-12T09:50:04.359Z,53.23
2019-05-12T09:52:33.332Z,51.65
2019-05-12T09:55:04.071Z,51.46
2019-05-12T09:57:40.410Z,53.43
2019-05-12T10:00:04.479Z,55.20
2019-05-12T10:02:32.445Z,51.77
2019-05-12T10:05:01.138Z,50.46
2019-05-12T10:07:30.193Z,49.34
2019-05-12T10:09:59.162Z,45.71
2019-05-12T10:12:29.804Z,48.75
2019-05-12T10:14:58.225Z,52.70
2019-05-12T10:17:30.152Z,52.50
2019-05-12T10:19:58.240Z,52.61
2019-05-12T10:22:29.988Z,53.87
2019-05-12T10:24:58.880Z,49.70
2019-05-12T10:27:31.878Z,49.18
2019-05-12T10:30:05.629Z,48.51
2019-05-12T10:32:28.087Z,51.16
2019-05-12T10:34:56.599Z,51.44
2019-05-12T10:37:29.219Z,49.77
2019-05-12T10:39:55.210Z,46.51
2019-05-12T10:42:24.348Z,49.61
2019-05-12T10:44:56.715Z,51.71
2019-05-12T10:47:25.227Z,49.45
2019-05-12T10:49:53.952Z,46.06
2019-05-12T10:52:24.422Z,43.30
2019-05-12T10:54:53.816Z,45.87
2019-05-12T10:57:22.351Z,44.96
2019-05-12T10:59:50.807Z,48.33
2019-05-12T11:02:20.593Z,48.22
2019-05-12T11:04:49.437Z,50.36
2019-05-12T11:07:17.891Z,47.50
2019-05-12T11:09:46.483Z,43.80
2019-05-12T11:12:19.028Z,42.00
2019-05-12T11:14:45.331Z,40.70
2019-05-12T11:17:14.399Z,42.27
2019-05-12T11:19:47.169Z,44.60
2019-05-12T11:22:15.519Z,43.07
2019-05-12T11:24:44.545Z,43.16
2019-05-12T11:27:13.502Z,44.18
2019-05-12T11:29:48.544Z,42.83
2019-05-12T11:32:14.015Z,44.24
2019-05-12T11:34:44.306Z,45.03
2019-05-12T11:37:13.851Z,49.02
2019-05-12T11:39:45.287Z,51.94
2019-05-12T11:42:13.669Z,40.89
2019-05-12T11:44:44.175Z,39.69
2019-05-12T11:47:14.795Z,43.26
2019-05-12T11:49:44.142Z,42.87
2019-05-12T11:52:16.741Z,43.64
2019-05-12T11:54:49.149Z,44.94
2019-05-12T11:57:13.354Z,44.06
2019-05-12T11:59:47.477Z,43.61
2019-05-12T12:02:13.567Z,45.29
2019-05-12T12:04:43.695Z,44.00
2019-05-12T12:07:12.320Z,44.08
2019-05-12T12:09:40.775Z,44.70
2019-05-12T12:12:09.303Z,47.15
2019-05-12T12:14:40.105Z,47.13
2019-05-12T12:17:07.930Z,45.98
2019-05-12T12:19:43.628Z,47.60
2019-05-12T12:22:06.640Z,47.79
2019-05-12T12:24:38.206Z,46.49
2019-05-12T12:27:05.286Z,49.42
2019-05-12T12:29:34.523Z,47.77
2019-05-12T12:32:04.636Z,46.67
2019-05-12T12:34:33.192Z,46.79
2019-05-12T12:37:03.402Z,46.08
2019-05-12T12:39:31.790Z,46.99
2019-05-12T12:42:00.912Z,48.15
2019-05-12T12:44:29.394Z,47.42
2019-05-12T12:47:00.088Z,46.49
2019-05-12T12:49:29.510Z,45.71
2019-05-12T12:51:58.036Z,42.00
2019-05-12T12:54:26.565Z,43.80
2019-05-12T12:56:55.020Z,46.05
2019-05-12T12:59:24.059Z,45.13
2019-05-12T13:01:52.667Z,43.99
2019-05-12T13:04:21.160Z,42.64
2019-05-12T13:06:49.631Z,42.98
2019-05-12T13:09:24.267Z,42.34
2019-05-12T13:11:48.437Z,44.09
2019-05-12T13:14:16.849Z,44.23
2019-05-12T13:16:49.456Z,42.86
2019-05-12T13:19:17.213Z,42.27
2019-05-12T13:21:45.771Z,46.53
2019-05-12T13:24:14.287Z,44.18
2019-05-12T13:26:43.566Z,44.37
2019-05-12T13:29:13.386Z,44.54
2019-05-12T13:31:46.472Z,43.56
2019-05-12T13:34:14.237Z,44.11
2019-05-12T13:36:44.042Z,44.25
2019-05-12T13:39:16.316Z,41.79
2019-05-12T13:41:43.775Z,41.70
2019-05-12T13:44:13.681Z,43.24
2019-05-12T13:46:43.708Z,41.90
2019-05-12T13:49:14.094Z,44.30
2019-05-12T13:51:42.967Z,39.58
2019-05-12T13:54:14.391Z,43.03
2019-05-12T13:56:44.346Z,42.32
2019-05-12T13:59:20.731Z,42.78
2019-05-12T14:01:45.810Z,40.93
2019-05-12T14:04:13.915Z,41.73
2019-05-12T14:06:42.590Z,41.01
2019-05-12T14:09:13.439Z,41.97
2019-05-12T14:11:43.482Z,43.22
2019-05-12T14:14:15.162Z,41.42
2019-05-12T14:16:44.546Z,40.69
2019-05-12T14:19:14.231Z,42.66
2019-05-12T14:21:42.556Z,44.96
2019-05-12T14:24:13.729Z,43.56
2019-05-12T14:26:45.388Z,42.92
2019-05-12T14:29:13.776Z,41.14
2019-05-12T14:31:50.984Z,42.89
2019-05-12T14:34:18.849Z,43.77
2019-05-12T14:36:43.361Z,40.87
2019-05-12T14:39:13.366Z,41.07
2019-05-12T14:41:44.561Z,43.45
2019-05-12T14:44:13.751Z,43.67
2019-05-12T14:46:46.328Z,42.43
2019-05-12T14:49:14.152Z,42.16
2019-05-12T14:51:44.301Z,42.74
2019-05-12T14:54:13.432Z,39.23
2019-05-12T14:56:44.857Z,37.51
2019-05-12T14:59:14.472Z,38.29
2019-05-12T15:01:56.930Z,40.34
2019-05-12T15:04:13.313Z,41.73
2019-05-12T15:06:44.167Z,41.75
2019-05-12T15:09:19.667Z,42.27
2019-05-12T15:11:43.688Z,42.50
2019-05-12T15:14:13.785Z,45.75
2019-05-12T15:16:44.847Z,44.59
2019-05-12T15:19:13.950Z,43.34
2019-05-12T15:21:43.725Z,42.71
2019-05-12T15:24:16.991Z,40.85
2019-05-12T15:26:42.732Z,42.88
2019-05-12T15:29:17.957Z,41.19
2019-05-12T15:31:52.717Z,43.06
2019-05-12T15:34:13.694Z,42.73
2019-05-12T15:36:45.877Z,40.55
2019-05-12T15:39:13.967Z,43.04
2019-05-12T15:41:42.624Z,42.32
2019-05-12T15:44:11.072Z,41.23
2019-05-12T15:46:40.950Z,42.76
2019-05-12T15:49:09.776Z,44.24
2019-05-12T15:51:39.260Z,41.75
2019-05-12T15:54:11.663Z,43.74
2019-05-12T15:56:38.946Z,42.35
2019-05-12T15:59:07.446Z,41.94
2019-05-12T16:01:35.818Z,40.44
2019-05-12T16:04:04.542Z,39.42
2019-05-12T16:06:33.132Z,40.43
2019-05-12T16:09:03.850Z,41.12
2019-05-12T16:11:33.419Z,42.16
2019-05-12T16:14:01.925Z,41.88
2019-05-12T16:16:36.408Z,44.16
2019-05-12T16:19:00.680Z,41.89
2019-05-12T16:21:29.080Z,41.27
2019-05-12T16:24:03.050Z,43.69
2019-05-12T16:26:27.947Z,42.45
2019-05-12T16:29:03.243Z,39.34
2019-05-12T16:31:26.514Z,39.26
2019-05-12T16:34:01.224Z,40.91
2019-05-12T16:36:25.081Z,40.73
2019-05-12T16:38:58.043Z,40.39
2019-05-12T16:41:27.915Z,40.73
2019-05-12T16:43:53.867Z,44.21
2019-05-12T16:46:23.469Z,41.95
2019-05-12T16:48:56.233Z,43.51
2019-05-12T16:51:23.871Z,41.02
2019-05-12T16:53:54.014Z,40.18
2019-05-12T16:56:28.061Z,40.46
2019-05-12T16:58:54.166Z,39.54
2019-05-12T17:01:25.978Z,38.34
2019-05-12T17:03:54.657Z,38.98
2019-05-12T17:06:23.413Z,38.12
2019-05-12T17:08:54.254Z,41.44
2019-05-12T17:11:29.748Z,39.35
2019-05-12T17:13:59.757Z,39.05
2019-05-12T17:16:22.261Z,41.05
2019-05-12T17:18:50.718Z,40.05
2019-05-12T17:21:19.134Z,41.08
2019-05-12T17:23:47.620Z,40.56
2019-05-12T17:26:16.054Z,41.81
2019-05-12T17:28:44.589Z,42.10
2019-05-12T17:31:13.012Z,42.53
2019-05-12T17:33:41.438Z,41.03
2019-05-12T17:36:12.392Z,41.95
2019-05-12T17:38:40.008Z,39.59
2019-05-12T17:41:08.448Z,44.14
2019-05-12T17:43:39.997Z,44.64
2019-05-12T17:46:07.019Z,42.09
2019-05-12T17:48:37.446Z,44.86
2019-05-12T17:51:05.829Z,42.12
2019-05-12T17:53:36.065Z,41.90
2019-05-12T17:56:04.867Z,42.58
2019-05-12T17:58:36.619Z,44.14
2019-05-12T18:01:03.772Z,41.28
2019-05-12T18:03:34.269Z,45.85
2019-05-12T18:06:04.149Z,42.07
2019-05-12T18:08:35.654Z,42.46
2019-05-12T18:11:03.762Z,44.72
2019-05-12T18:13:34.416Z,43.27
2019-05-12T18:16:05.299Z,41.37
2019-05-12T18:18:38.072Z,43.00
2019-05-12T18:21:03.556Z,43.41
2019-05-12T18:23:34.335Z,46.00
2019-05-12T18:26:11.284Z,45.90
2019-05-12T18:28:33.456Z,41.84
2019-05-12T18:31:04.303Z,45.30
2019-05-12T18:33:34.869Z,45.49
2019-05-12T18:36:03.847Z,42.43
2019-05-12T18:38:35.233Z,43.29
2019-05-12T18:41:03.543Z,43.75
2019-05-12T18:43:34.612Z,42.18
2019-05-12T18:46:08.333Z,45.89
2019-05-12T18:48:34.374Z,42.40
2019-05-12T18:51:11.973Z,43.03
2019-05-12T18:53:34.950Z,43.43
2019-05-12T18:56:04.580Z,47.80
2019-05-12T18:58:35.305Z,45.29
2019-05-12T19:01:04.751Z,46.82
2019-05-12T19:03:44.789Z,44.69
2019-05-12T19:06:03.563Z,45.36
2019-05-12T19:08:32.011Z,45.29
2019-05-12T19:11:17.861Z,42.91
2019-05-12T19:13:33.805Z,44.37
2019-05-12T19:16:06.334Z,45.82
2019-05-12T19:18:36.963Z,43.50
2019-05-12T19:21:04.671Z,43.99
2019-05-12T19:23:35.396Z,43.18
2019-05-12T19:26:04.230Z,44.33
2019-05-12T19:28:34.231Z,45.31
2019-05-12T19:31:06.170Z,43.98
2019-05-12T19:33:33.190Z,44.16
2019-05-12T19:36:05.393Z,45.21
2019-05-12T19:38:34.415Z,44.44
2019-05-12T19:41:04.441Z,45.08
2019-05-12T19:43:33.971Z,44.85
2019-05-12T19:46:04.598Z,45.62
2019-05-12T19:48:35.041Z,47.46
2019-05-12T19:51:20.384Z,47.80
2019-05-12T19:53:33.612Z,45.82
2019-05-12T19:56:03.868Z,45.14
2019-05-12T19:58:34.031Z,45.13
2019-05-12T20:01:03.666Z,45.91
2019-05-12T20:03:33.475Z,46.32
2019-05-12T20:06:02.048Z,46.26
2019-05-12T20:08:30.574Z,46.87
2019-05-12T20:10:58.999Z,46.90
2019-05-12T20:13:29.475Z,47.75
2019-05-12T20:15:57.611Z,47.87
2019-05-12T20:18:26.068Z,48.17
2019-05-12T20:20:54.490Z,48.34
2019-05-12T20:23:24.524Z,48.67
2019-05-12T20:25:53.583Z,48.53
2019-05-12T20:28:24.265Z,49.04
2019-05-12T20:31:00.831Z,49.27
2019-05-12T20:33:24.016Z,48.95
2019-05-12T20:35:54.734Z,48.68
2019-05-12T20:38:25.407Z,49.08
2019-05-12T20:40:54.185Z,48.94
2019-05-12T20:43:31.823Z,49.25
2019-05-12T20:45:53.573Z,49.16
2019-05-12T20:48:29.184Z,48.65
2019-05-12T20:50:52.291Z,49.43
2019-05-12T20:53:24.787Z,49.32
2019-05-12T20:55:51.159Z,50.15
2019-05-12T20:58:19.577Z,50.13
2019-05-12T21:00:50.174Z,50.10
2019-05-12T21:03:18.383Z,49.80
2019-05-12T21:05:50.596Z,49.97
2019-05-12T21:08:17.147Z,49.44
2019-05-12T21:10:45.585Z,50.25
2019-05-12T21:13:14.674Z,49.55
2019-05-12T21:15:45.824Z,49.28
2019-05-12T21:18:14.732Z,49.41
2019-05-12T21:20:46.428Z,49.66
2019-05-12T21:23:13.635Z,49.52
2019-05-12T21:25:43.891Z,49.82
2019-05-12T21:28:14.687Z,49.90
2019-05-12T21:30:47.954Z,50.00
2019-05-12T21:33:14.760Z,50.30
2019-05-12T21:35:45.764Z,50.15
2019-05-12T21:38:13.423Z,50.20
2019-05-12T21:40:44.205Z,50.31
2019-05-12T21:43:13.499Z,50.88
2019-05-12T21:45:42.208Z,50.16
2019-05-12T21:48:14.994Z,50.69
2019-05-12T21:50:44.454Z,50.70
2019-05-12T21:53:17.657Z,51.20
2019-05-12T21:55:44.375Z,50.57
2019-05-12T21:58:15.270Z,51.21
2019-05-12T22:00:50.482Z,51.39
2019-05-12T22:03:17.984Z,51.75
2019-05-12T22:05:51.622Z,51.75
2019-05-12T22:08:21.994Z,51.69
2019-05-12T22:10:48.385Z,52.12
2019-05-12T22:13:18.140Z,52.43
2019-05-12T22:15:51.388Z,52.23
2019-05-12T22:18:19.289Z,52.45
2019-05-12T22:20:52.222Z,52.72
2019-05-12T22:23:17.626Z,52.82
2019-05-12T22:25:49.037Z,52.56
2019-05-12T22:28:16.399Z,52.26
2019-05-12T22:30:44.834Z,52.24
2019-05-12T22:33:14.787Z,52.52
2019-05-12T22:35:44.455Z,53.14
2019-05-12T22:38:16.589Z,52.99
2019-05-12T22:40:43.322Z,53.30
2019-05-12T22:43:14.056Z,53.57
2019-05-12T22:45:54.735Z,53.61
2019-05-12T22:48:40.321Z,53.57
2019-05-12T22:51:23.765Z,53.46
2019-05-12T22:57:24.219Z,53.42
2019-05-12T22:59:32.055Z,54.08
2019-05-12T23:04:52.021Z,54.43
2019-05-12T23:07:27.804Z,54.61
2019-05-12T23:09:50.725Z,54.58
2019-05-12T23:12:20.257Z,54.94
2019-05-12T23:14:56.494Z,54.62
2019-05-12T23:17:19.042Z,54.81
2019-05-12T23:19:51.385Z,54.83
2019-05-12T23:22:17.993Z,54.65
2019-05-12T23:24:46.414Z,54.59
2019-05-12T23:27:18.830Z,54.70
2019-05-12T23:29:45.210Z,54.69
2019-05-12T23:32:15.044Z,54.90
2019-05-12T23:34:47.114Z,55.07
2019-05-12T23:37:14.116Z,55.38
2019-05-12T23:39:44.262Z,54.53
2019-05-12T23:42:13.617Z,55.05
2019-05-12T23:44:44.182Z,54.75
2019-05-12T23:47:12.503Z,54.90
2019-05-12T23:49:41.103Z,55.02
2019-05-12T23:52:09.577Z,55.20
2019-05-12T23:54:38.223Z,55.41
2019-05-12T23:57:06.665Z,55.41
2019-05-12T23:59:35.163Z,55.64
